• pl
  • eng

Awiacja
WIADOMOŚCI
ostatnia aktualizacja: 13.03.2020 07:57
Od dnia 13.03.2020 do odwołania zawieszone zostaje opracowywanie prognozy Gafor.
TAF dla lotnisk wojskowych 07:30 10.04.2020

TAF EPCE 100500Z 1006/1015 VRB03KT CAVOK BECMG 1011/1014 32008KT=

TAF EPDA 100500Z 1006/1015 28007KT CAVOK=

TAF EPDE 100500Z 1006/1015 30008KT CAVOK
BECMG 1008/1010 27008KT 9999 SCT040 BKN200=

TAF EPIR 100500Z 1006/1015 27008KT CAVOK=

TAF EPKS 100500Z 1006/1015 27005KT CAVOK
BECMG 1007/1009 32012KT=

TAF EPLK 100500Z 1006/1015 28008KT CAVOK=

TAF EPLY 100500Z 1006/1015 28008KT CAVOK=

TAF EPMB 100500Z 1006/1015 VRB03KT CAVOK BECMG 1011/1013 36008KT=

TAF EPMI 100500Z 1006/1015 29008KT CAVOK=

TAF EPMM 100500Z 1006/1015 29010KT CAVOK=

TAF EPOK 100500Z 1006/1015 29007KT CAVOK=

TAF EPPR 100500Z 1006/1015 VRB02KT CAVOK BECMG 1008/1010 35010KT=

TAF EPPW 100500Z 1006/1015 29008KT CAVOK=

TAF AMD EPRA 100601Z 1006/1015 CNL=

TAF EPSN 100500Z 1006/1015 29006KT CAVOK=

TAF EPTM 100500Z 1006/1015 28008KT CAVOK=
Awiacja.imgw.pl jest pogodowym serwisem informacyjnym
Instytutu Meteorologii i Gospodarki Wodnej Państwowego Instytutu Badawczego.
Copyright IMGW PIB 2009-2019© Wszelkie prawa zastrzeżone.